sensor_id;sensor_type;location;lat;lon;timestamp;P1;durP1;ratioP1;P2;durP2;ratioP2
23187;SDS011;11762;59.878;17.686;2023-11-18T00:00:48;4.37;;;2.40;;
23187;SDS011;11762;59.878;17.686;2023-11-18T00:03:15;4.43;;;2.23;;
23187;SDS011;11762;59.878;17.686;2023-11-18T00:05:43;5.63;;;3.07;;
23187;SDS011;11762;59.878;17.686;2023-11-18T00:08:10;4.50;;;2.43;;
23187;SDS011;11762;59.878;17.686;2023-11-18T00:10:38;6.33;;;2.33;;
23187;SDS011;11762;59.878;17.686;2023-11-18T00:13:05;4.47;;;2.63;;
23187;SDS011;11762;59.878;17.686;2023-11-18T00:15:35;6.80;;;2.63;;
23187;SDS011;11762;59.878;17.686;2023-11-18T00:18:02;4.37;;;2.40;;
23187;SDS011;11762;59.878;17.686;2023-11-18T00:20:30;5.73;;;2.70;;
23187;SDS011;11762;59.878;17.686;2023-11-18T00:22:57;4.80;;;2.47;;
23187;SDS011;11762;59.878;17.686;2023-11-18T00:25:24;5.00;;;2.87;;
23187;SDS011;11762;59.878;17.686;2023-11-18T00:27:52;4.57;;;2.67;;
23187;SDS011;11762;59.878;17.686;2023-11-18T00:30:19;3.90;;;2.40;;
23187;SDS011;11762;59.878;17.686;2023-11-18T00:32:48;5.33;;;2.83;;
23187;SDS011;11762;59.878;17.686;2023-11-18T00:35:15;4.40;;;2.20;;
23187;SDS011;11762;59.878;17.686;2023-11-18T00:37:43;4.33;;;2.13;;
23187;SDS011;11762;59.878;17.686;2023-11-18T00:40:10;4.57;;;2.40;;
23187;SDS011;11762;59.878;17.686;2023-11-18T00:42:37;4.57;;;2.67;;
23187;SDS011;11762;59.878;17.686;2023-11-18T00:45:05;4.23;;;2.47;;
23187;SDS011;11762;59.878;17.686;2023-11-18T00:47:33;4.63;;;2.20;;
23187;SDS011;11762;59.878;17.686;2023-11-18T00:50:02;3.77;;;1.97;;
23187;SDS011;11762;59.878;17.686;2023-11-18T00:52:33;4.83;;;2.60;;
23187;SDS011;11762;59.878;17.686;2023-11-18T00:55:00;4.83;;;2.80;;
23187;SDS011;11762;59.878;17.686;2023-11-18T00:57:28;4.33;;;2.30;;
23187;SDS011;11762;59.878;17.686;2023-11-18T00:59:56;5.10;;;2.33;;
23187;SDS011;11762;59.878;17.686;2023-11-18T01:02:23;4.20;;;2.40;;
23187;SDS011;11762;59.878;17.686;2023-11-18T01:04:51;4.83;;;2.30;;
23187;SDS011;11762;59.878;17.686;2023-11-18T01:07:20;4.40;;;2.27;;
23187;SDS011;11762;59.878;17.686;2023-11-18T01:09:47;4.93;;;2.93;;
23187;SDS011;11762;59.878;17.686;2023-11-18T01:12:15;4.03;;;2.43;;
23187;SDS011;11762;59.878;17.686;2023-11-18T01:14:42;4.10;;;2.20;;
23187;SDS011;11762;59.878;17.686;2023-11-18T01:17:10;5.20;;;2.90;;
23187;SDS011;11762;59.878;17.686;2023-11-18T01:19:38;5.20;;;2.53;;
23187;SDS011;11762;59.878;17.686;2023-11-18T01:22:06;5.53;;;2.63;;
23187;SDS011;11762;59.878;17.686;2023-11-18T01:24:35;4.80;;;2.73;;
23187;SDS011;11762;59.878;17.686;2023-11-18T01:27:02;5.40;;;2.80;;
23187;SDS011;11762;59.878;17.686;2023-11-18T01:29:29;5.50;;;2.47;;
23187;SDS011;11762;59.878;17.686;2023-11-18T01:31:59;5.10;;;2.50;;
23187;SDS011;11762;59.878;17.686;2023-11-18T01:34:33;4.30;;;2.40;;
23187;SDS011;11762;59.878;17.686;2023-11-18T01:37:01;4.87;;;2.80;;
23187;SDS011;11762;59.878;17.686;2023-11-18T01:39:29;6.00;;;3.07;;
23187;SDS011;11762;59.878;17.686;2023-11-18T01:41:58;8.03;;;3.50;;
23187;SDS011;11762;59.878;17.686;2023-11-18T01:44:25;6.03;;;3.23;;
23187;SDS011;11762;59.878;17.686;2023-11-18T01:46:54;6.53;;;2.90;;
23187;SDS011;11762;59.878;17.686;2023-11-18T01:49:21;6.50;;;3.20;;
23187;SDS011;11762;59.878;17.686;2023-11-18T01:51:50;6.77;;;3.37;;
23187;SDS011;11762;59.878;17.686;2023-11-18T01:54:17;7.63;;;3.43;;
23187;SDS011;11762;59.878;17.686;2023-11-18T01:56:46;8.27;;;3.60;;
23187;SDS011;11762;59.878;17.686;2023-11-18T01:59:14;8.57;;;3.60;;
23187;SDS011;11762;59.878;17.686;2023-11-18T02:01:45;6.80;;;3.67;;
23187;SDS011;11762;59.878;17.686;2023-11-18T02:04:13;5.63;;;3.40;;
23187;SDS011;11762;59.878;17.686;2023-11-18T02:06:40;7.60;;;4.37;;
23187;SDS011;11762;59.878;17.686;2023-11-18T02:09:10;8.10;;;4.07;;
23187;SDS011;11762;59.878;17.686;2023-11-18T02:11:39;7.70;;;3.60;;
23187;SDS011;11762;59.878;17.686;2023-11-18T02:14:12;8.17;;;3.63;;
23187;SDS011;11762;59.878;17.686;2023-11-18T02:16:42;9.73;;;4.40;;
23187;SDS011;11762;59.878;17.686;2023-11-18T02:19:15;9.17;;;4.40;;
23187;SDS011;11762;59.878;17.686;2023-11-18T02:21:46;6.63;;;3.83;;
23187;SDS011;11762;59.878;17.686;2023-11-18T02:24:24;7.10;;;3.70;;
23187;SDS011;11762;59.878;17.686;2023-11-18T02:26:53;8.30;;;4.20;;
23187;SDS011;11762;59.878;17.686;2023-11-18T02:29:21;6.10;;;3.03;;
23187;SDS011;11762;59.878;17.686;2023-11-18T02:31:49;5.17;;;2.50;;
23187;SDS011;11762;59.878;17.686;2023-11-18T02:34:26;5.57;;;2.57;;
23187;SDS011;11762;59.878;17.686;2023-11-18T02:36:56;6.13;;;3.03;;
23187;SDS011;11762;59.878;17.686;2023-11-18T02:39:27;7.13;;;3.47;;
23187;SDS011;11762;59.878;17.686;2023-11-18T02:42:00;6.70;;;3.20;;
23187;SDS011;11762;59.878;17.686;2023-11-18T02:44:29;7.37;;;3.40;;
23187;SDS011;11762;59.878;17.686;2023-11-18T02:46:58;8.77;;;3.43;;
23187;SDS011;11762;59.878;17.686;2023-11-18T02:49:26;8.63;;;3.70;;
23187;SDS011;11762;59.878;17.686;2023-11-18T02:51:53;13.33;;;4.07;;
23187;SDS011;11762;59.878;17.686;2023-11-18T02:54:21;8.87;;;4.23;;
23187;SDS011;11762;59.878;17.686;2023-11-18T02:56:48;7.47;;;3.50;;
23187;SDS011;11762;59.878;17.686;2023-11-18T02:59:17;7.57;;;3.67;;
23187;SDS011;11762;59.878;17.686;2023-11-18T03:01:44;8.67;;;4.47;;
23187;SDS011;11762;59.878;17.686;2023-11-18T03:04:11;7.83;;;3.83;;
23187;SDS011;11762;59.878;17.686;2023-11-18T03:06:39;6.53;;;3.73;;
23187;SDS011;11762;59.878;17.686;2023-11-18T03:09:07;6.80;;;3.33;;
23187;SDS011;11762;59.878;17.686;2023-11-18T03:11:35;6.37;;;3.50;;
23187;SDS011;11762;59.878;17.686;2023-11-18T03:14:03;12.20;;;4.67;;
23187;SDS011;11762;59.878;17.686;2023-11-18T03:16:35;7.80;;;3.50;;
23187;SDS011;11762;59.878;17.686;2023-11-18T03:19:03;9.63;;;4.00;;
23187;SDS011;11762;59.878;17.686;2023-11-18T03:21:32;8.27;;;4.13;;
23187;SDS011;11762;59.878;17.686;2023-11-18T03:23:59;7.67;;;3.80;;
23187;SDS011;11762;59.878;17.686;2023-11-18T03:26:26;7.33;;;3.87;;
23187;SDS011;11762;59.878;17.686;2023-11-18T03:28:52;9.50;;;3.53;;
23187;SDS011;11762;59.878;17.686;2023-11-18T03:31:19;8.60;;;3.93;;
23187;SDS011;11762;59.878;17.686;2023-11-18T03:33:48;7.23;;;3.60;;
23187;SDS011;11762;59.878;17.686;2023-11-18T03:36:15;8.60;;;3.43;;
23187;SDS011;11762;59.878;17.686;2023-11-18T03:38:43;8.33;;;3.73;;
23187;SDS011;11762;59.878;17.686;2023-11-18T03:41:10;7.60;;;3.63;;
23187;SDS011;11762;59.878;17.686;2023-11-18T03:43:38;11.40;;;4.10;;
23187;SDS011;11762;59.878;17.686;2023-11-18T03:46:05;7.90;;;3.77;;
23187;SDS011;11762;59.878;17.686;2023-11-18T03:48:32;10.43;;;3.87;;
23187;SDS011;11762;59.878;17.686;2023-11-18T03:51:02;7.90;;;4.23;;
23187;SDS011;11762;59.878;17.686;2023-11-18T03:53:29;9.63;;;3.83;;
23187;SDS011;11762;59.878;17.686;2023-11-18T03:55:58;7.83;;;3.67;;
23187;SDS011;11762;59.878;17.686;2023-11-18T03:58:25;9.63;;;4.33;;
23187;SDS011;11762;59.878;17.686;2023-11-18T04:00:52;6.73;;;3.47;;
23187;SDS011;11762;59.878;17.686;2023-11-18T04:03:20;8.43;;;3.27;;
23187;SDS011;11762;59.878;17.686;2023-11-18T04:05:47;7.07;;;3.40;;
23187;SDS011;11762;59.878;17.686;2023-11-18T04:08:15;7.20;;;3.50;;
23187;SDS011;11762;59.878;17.686;2023-11-18T04:10:42;7.27;;;3.43;;
23187;SDS011;11762;59.878;17.686;2023-11-18T04:13:09;7.17;;;3.80;;
23187;SDS011;11762;59.878;17.686;2023-11-18T04:15:36;8.57;;;3.10;;
23187;SDS011;11762;59.878;17.686;2023-11-18T04:18:03;6.60;;;2.77;;
23187;SDS011;11762;59.878;17.686;2023-11-18T04:20:31;5.60;;;2.57;;
23187;SDS011;11762;59.878;17.686;2023-11-18T04:22:58;6.40;;;2.43;;
23187;SDS011;11762;59.878;17.686;2023-11-18T04:25:27;4.83;;;2.63;;
23187;SDS011;11762;59.878;17.686;2023-11-18T04:27:54;6.20;;;2.63;;
23187;SDS011;11762;59.878;17.686;2023-11-18T04:30:21;5.77;;;2.40;;
23187;SDS011;11762;59.878;17.686;2023-11-18T04:32:48;3.57;;;2.10;;
23187;SDS011;11762;59.878;17.686;2023-11-18T04:35:17;5.97;;;2.13;;
23187;SDS011;11762;59.878;17.686;2023-11-18T04:37:44;3.73;;;1.87;;
